NCAR-RAP Real-Time Weather Data

Output produced by METARs form (24 July 2017  08:53 UTC)
found at http://weather.rap.ucar.edu/surface/
 
Conditions at: KBKV observed 24 July 2017  07:53 UTC
Temperature: 23.9°C (75°F)
Dewpoint: 23.3°C (74°F) [RH = 96%]
Pressure (altimeter): 30.02 inches Hg (1016.7 mb)
[Sea-level pressure: 1016.4 mb]
Winds: calm
Visibility: 7 miles (11 km)
Ceiling: at least 12,000 feet AGL
Clouds: sky clear below 12,000 feet AGL
Present Weather: automated observation with no human augmentation;
there may or may not be significant weather present at this time
KBKV 240753Z AUTO 00000KT 7SM CLR 24/23 A3002 RMK AO2 SLP164 T02390233

Conditions at: KBKV observed 24 July 2017  06:53 UTC
Temperature: 23.9°C (75°F)
Dewpoint: 23.3°C (74°F) [RH = 96%]
Pressure (altimeter): 30.03 inches Hg (1017.0 mb)
[Sea-level pressure: 1016.5 mb]
Winds: from the SE (140 degrees) at 3 MPH (3 knots; 1.6 m/s)
Visibility: 9 miles (14 km)
Ceiling: at least 12,000 feet AGL
Clouds: sky clear below 12,000 feet AGL
Present Weather: automated observation with no human augmentation;
there may or may not be significant weather present at this time
KBKV 240653Z AUTO 14003KT 9SM CLR 24/23 A3003 RMK AO2 LTG DSNT SW SLP165 T02390233

Conditions at: KBKV observed 24 July 2017  05:53 UTC
Temperature: 23.9°C (75°F)
Dewpoint: 23.3°C (74°F) [RH = 96%]
Pressure (altimeter): 30.04 inches Hg (1017.4 mb)
[Sea-level pressure: 1016.9 mb]
Winds: from the SSE (160 degrees) at 6 MPH (5 knots; 2.6 m/s)
Visibility: 10 or more miles (16+ km)
Ceiling: at least 12,000 feet AGL
Clouds: sky clear below 12,000 feet AGL
Present Weather: automated observation with no human augmentation;
there may or may not be significant weather present at this time
KBKV 240553Z AUTO 16005KT 10SM CLR 24/23 A3004 RMK AO2 SLP169 60000 T02390233 10261 20239 58001

Conditions at: KBKV observed 24 July 2017  04:53 UTC
Temperature: 24.4°C (76°F)
Dewpoint: 23.3°C (74°F) [RH = 94%]
Pressure (altimeter): 30.05 inches Hg (1017.7 mb)
[Sea-level pressure: 1017.2 mb]
Winds: from the SSE (150 degrees) at 5 MPH (4 knots; 2.1 m/s)
Visibility: 10 or more miles (16+ km)
Ceiling: at least 12,000 feet AGL
Clouds: sky clear below 12,000 feet AGL
Present Weather: automated observation with no human augmentation;
there may or may not be significant weather present at this time
KBKV 240453Z AUTO 15004KT 10SM CLR 24/23 A3005 RMK AO2 SLP172 T02440233 402610222

Conditions at: KBKV observed 24 July 2017  03:53 UTC
Temperature: 24.4°C (76°F)
Dewpoint: 23.3°C (74°F) [RH = 94%]
Pressure (altimeter): 30.05 inches Hg (1017.7 mb)
[Sea-level pressure: 1017.4 mb]
Winds: calm
Visibility: 10 or more miles (16+ km)
Ceiling: at least 12,000 feet AGL
Clouds: sky clear below 12,000 feet AGL
Present Weather: automated observation with no human augmentation;
there may or may not be significant weather present at this time
KBKV 240353Z AUTO 00000KT 10SM CLR 24/23 A3005 RMK AO2 SLP174 T02440233

Conditions at: KBKV observed 24 July 2017  02:53 UTC
Temperature: 24.4°C (76°F)
Dewpoint: 23.3°C (74°F) [RH = 94%]
Pressure (altimeter): 30.04 inches Hg (1017.4 mb)
[Sea-level pressure: 1016.9 mb]
Winds: calm
Visibility: 10 or more miles (16+ km)
Ceiling: at least 12,000 feet AGL
Clouds: sky clear below 12,000 feet AGL
Present Weather: automated observation with no human augmentation;
there may or may not be significant weather present at this time
KBKV 240253Z AUTO 00000KT 10SM CLR 24/23 A3004 RMK AO2 SLP169 60000 T02440233 53010

Conditions at: KBKV observed 24 July 2017  01:53 UTC
Temperature: 24.4°C (76°F)
Dewpoint: 23.9°C (75°F) [RH = 97%]
Pressure (altimeter): 30.02 inches Hg (1016.7 mb)
[Sea-level pressure: 1016.2 mb]
Winds: calm
Visibility: 10 or more miles (16+ km)
Ceiling: at least 12,000 feet AGL
Clouds: sky clear below 12,000 feet AGL
Present Weather: automated observation with no human augmentation;
there may or may not be significant weather present at this time
KBKV 240153Z AUTO 00000KT 10SM CLR 24/24 A3002 RMK AO2 RAB39E48 SLP162 P0000 T02440239

Conditions at: KBKV observed 24 July 2017  00:53 UTC
Temperature: 25.0°C (77°F)
Dewpoint: 24.4°C (76°F) [RH = 96%]
Pressure (altimeter): 30.00 inches Hg (1016.0 mb)
[Sea-level pressure: 1015.8 mb]
Winds: calm
Visibility: 10 or more miles (16+ km)
Ceiling: at least 12,000 feet AGL
Clouds: sky clear below 12,000 feet AGL
Present Weather: no significant weather observed at this time
KBKV 240053Z 00000KT 10SM CLR 25/24 A3000 RMK AO2 SLP158 T02500244

Conditions at: KBKV observed 23 July 2017  23:53 UTC
Temperature: 26.1°C (79°F)
Dewpoint: 23.9°C (75°F) [RH = 88%]
Pressure (altimeter): 30.01 inches Hg (1016.3 mb)
[Sea-level pressure: 1015.9 mb]
Winds: from the NNW (330 degrees) at 3 MPH (3 knots; 1.6 m/s)
Visibility: 10 or more miles (16+ km)
Ceiling: at least 12,000 feet AGL
Clouds: sky clear below 12,000 feet AGL
Present Weather: no significant weather observed at this time
KBKV 232353Z 33003KT 10SM CLR 26/24 A3001 RMK AO2 SLP159 60004 T02610239 10261 20228 55011

Conditions at: KBKV observed 23 July 2017  22:53 UTC
Temperature: 26.1°C (79°F)
Dewpoint: 23.9°C (75°F) [RH = 88%]
Pressure (altimeter): 29.97 inches Hg (1015.0 mb)
[Sea-level pressure: 1014.7 mb]
Winds: from the SSE (150 degrees) at 6 MPH (5 knots; 2.6 m/s)
Visibility: 10 or more miles (16+ km)
Ceiling: at least 12,000 feet AGL
Clouds: sky clear below 12,000 feet AGL
Present Weather: no significant weather observed at this time
KBKV 232253Z 15005KT 10SM CLR 26/24 A2997 RMK AO2 SLP147 T02610239

Conditions at: KBKV observed 23 July 2017  21:53 UTC
Temperature: 26.1°C (79°F)
Dewpoint: 24.4°C (76°F) [RH = 90%]
Pressure (altimeter): 30.01 inches Hg (1016.3 mb)
[Sea-level pressure: 1015.9 mb]
Winds: from the SSE (150 degrees) at 5 MPH (4 knots; 2.1 m/s)
Visibility: 10 or more miles (16+ km)
Ceiling: at least 12,000 feet AGL
Clouds: sky clear below 12,000 feet AGL
Present Weather: no significant weather observed at this time
KBKV 232153Z 15004KT 10SM CLR 26/24 A3001 RMK AO2 SLP159 T02610244

Conditions at: KBKV observed 23 July 2017  21:13 UTC
Temperature: 25.0°C (77°F)
Dewpoint: 23.9°C (75°F) [RH = 94%]
Pressure (altimeter): 30.03 inches Hg (1017.0 mb)
Winds: from the SSE (160 degrees) at 3 MPH (3 knots; 1.6 m/s)
Visibility: 10 or more miles (16+ km)
Ceiling: at least 12,000 feet AGL
Clouds: few clouds at 500 feet AGL
scattered clouds at 11000 feet AGL
Present Weather: no significant weather observed at this time
KBKV 232113Z 16003KT 10SM FEW005 SCT110 25/24 A3003 RMK AO2 T02500239

Conditions at: KBKV observed 23 July 2017  20:53 UTC
Temperature: 25.0°C (77°F)
Dewpoint: 23.9°C (75°F) [RH = 94%]
Pressure (altimeter): 30.04 inches Hg (1017.4 mb)
[Sea-level pressure: 1016.9 mb]
Winds: calm
Visibility: 10 or more miles (16+ km)
Ceiling: 11000 feet AGL
Clouds: broken clouds at 11000 feet AGL
Present Weather: no significant weather observed at this time
KBKV 232053Z 00000KT 10SM BKN110 25/24 A3004 RMK AO2 RAE18 SLP169 P0000 60004 T02500239 56015

Conditions at: KBKV observed 23 July 2017  19:53 UTC
Temperature: 24.4°C (76°F)
Dewpoint: 23.3°C (74°F) [RH = 94%]
Pressure (altimeter): 30.05 inches Hg (1017.7 mb)
[Sea-level pressure: 1017.4 mb]
Winds: from the S (180 degrees) at 5 MPH (4 knots; 2.1 m/s)
Visibility: 10 or more miles (16+ km)
Ceiling: 11000 feet AGL
Clouds: few clouds at 7500 feet AGL
broken clouds at 11000 feet AGL
Present Weather: -RA  (light rain)
KBKV 231953Z 18004KT 10SM -RA FEW075 BKN110 24/23 A3005 RMK AO2 SLP174 P0002 T02440233

Conditions at: KBKV observed 23 July 2017  18:53 UTC
Temperature: 23.3°C (74°F)
Dewpoint: 22.2°C (72°F) [RH = 94%]
Pressure (altimeter): 30.06 inches Hg (1018.0 mb)
[Sea-level pressure: 1017.6 mb]
Winds: calm
Visibility: 10 or more miles (16+ km)
Ceiling: 9000 feet AGL
Clouds: few clouds at 7000 feet AGL
broken clouds at 9000 feet AGL
broken clouds at 11000 feet AGL
Present Weather: -RA  (light rain)
KBKV 231853Z 00000KT 10SM -RA FEW070 BKN090 BKN110 23/22 A3006 RMK AO2 SLP176 P0002 T02330222

Conditions at: KBKV observed 23 July 2017  17:53 UTC
Temperature: 22.8°C (73°F)
Dewpoint: 21.7°C (71°F) [RH = 94%]
Pressure (altimeter): 30.08 inches Hg (1018.7 mb)
[Sea-level pressure: 1018.5 mb]
Winds: from the W (270 degrees) at 7 MPH (6 knots; 3.1 m/s)
Visibility: 10 or more miles (16+ km)
Ceiling: 10000 feet AGL
Clouds: broken clouds at 10000 feet AGL
Present Weather: -RA  (light rain)
KBKV 231753Z 27006KT 10SM -RA BKN100 23/22 A3008 RMK AO2 SLP185 P0007 60075 T02280217 10244 20222 58005

Conditions at: KBKV observed 23 July 2017  16:53 UTC
Temperature: 23.9°C (75°F)
Dewpoint: 22.8°C (73°F) [RH = 94%]
Pressure (altimeter): 30.11 inches Hg (1019.7 mb)
[Sea-level pressure: 1019.4 mb]
Winds: from the WNW (290 degrees) at 6 MPH (5 knots; 2.6 m/s)
Visibility: 6 miles (10 km)
Ceiling: 10000 feet AGL
Clouds: few clouds at 7500 feet AGL
broken clouds at 10000 feet AGL
overcast cloud deck at 12000 feet AGL
Present Weather: RA BR  (rain, mist)
KBKV 231653Z 29005KT 6SM RA BR FEW075 BKN100 OVC120 24/23 A3011 RMK AO2 SLP194 P0005 T02390228

Conditions at: KBKV observed 23 July 2017  15:53 UTC
Temperature: 23.3°C (74°F)
Dewpoint: 22.8°C (73°F) [RH = 97%]
Pressure (altimeter): 30.11 inches Hg (1019.7 mb)
[Sea-level pressure: 1019.2 mb]
Winds: calm
Visibility: 10 or more miles (16+ km)
Ceiling: at least 12,000 feet AGL
Clouds: scattered clouds at 11000 feet AGL
Present Weather: -RA  (light rain)
KBKV 231553Z 00000KT 10SM -RA SCT110 23/23 A3011 RMK AO2 SLP192 P0008 T02330228

Conditions at: KBKV observed 23 July 2017  15:24 UTC
Temperature: 22.8°C (73°F)
Dewpoint: 22.2°C (72°F) [RH = 96%]
Pressure (altimeter): 30.10 inches Hg (1019.4 mb)
Winds: from the SSE (160 degrees) at 3 MPH (3 knots; 1.6 m/s)
Visibility: 6 miles (10 km)
Ceiling: 11000 feet AGL
Clouds: broken clouds at 11000 feet AGL
Present Weather: RA BR  (rain, mist)
KBKV 231524Z 16003KT 6SM RA BR BKN110 23/22 A3010 RMK AO2 P0006 T02280222

Conditions at: KBKV observed 23 July 2017  15:09 UTC
Temperature: 22.8°C (73°F)
Dewpoint: 22.2°C (72°F) [RH = 96%]
Pressure (altimeter): 30.10 inches Hg (1019.4 mb)
Winds: from the S (180 degrees) at 3 MPH (3 knots; 1.6 m/s)
Visibility: 5 miles (8 km)
Ceiling: 11000 feet AGL
Clouds: overcast cloud deck at 11000 feet AGL
Present Weather: VCTS RA BR  (thunderstorm in vicinity, rain, mist)
KBKV 231509Z 18003KT 5SM VCTS RA BR OVC110 23/22 A3010 RMK AO2 LTG DSNT E P0004 T02280222

Conditions at: KBKV observed 23 July 2017  14:53 UTC
Temperature: 22.8°C (73°F)
Dewpoint: 22.2°C (72°F) [RH = 96%]
Pressure (altimeter): 30.10 inches Hg (1019.4 mb)
[Sea-level pressure: 1019.0 mb]
Winds: from the SSE (160 degrees) at 5 MPH (4 knots; 2.1 m/s)
Visibility: 5 miles (8 km)
Ceiling: 11000 feet AGL
Clouds: broken clouds at 11000 feet AGL
Present Weather: +RA BR  (heavy rain, mist)
KBKV 231453Z 16004KT 5SM +RA BR BKN110 23/22 A3010 RMK AO2 LTG DSNT E TSB35E50 SLP190 P0022 60055 T02280222 51014

Conditions at: KBKV observed 23 July 2017  14:41 UTC
Temperature: 22.8°C (73°F)
Dewpoint: 22.2°C (72°F) [RH = 96%]
Pressure (altimeter): 30.10 inches Hg (1019.4 mb)
Winds: from the SE (130 degrees) at 3 MPH (3 knots; 1.6 m/s)
Visibility: 6 miles (10 km)
Ceiling: 10000 feet AGL
Clouds: few clouds at 6000 feet AGL
broken clouds at 10000 feet AGL
Present Weather: TSRA BR  (rain associated with thunderstorm(s), mist)
KBKV 231441Z 13003KT 6SM TSRA BR FEW060 BKN100 23/22 A3010 RMK AO2 LTG DSNT E-SW TSB35 P0019 T02280222

Conditions at: KBKV observed 23 July 2017  14:27 UTC
Temperature: 22.2°C (72°F)
Dewpoint: 21.7°C (71°F) [RH = 97%]
Pressure (altimeter): 30.09 inches Hg (1019.0 mb)
Winds: from the SE (130 degrees) at 5 MPH (4 knots; 2.1 m/s)
Visibility: 5 miles (8 km)
Ceiling: 10000 feet AGL
Clouds: scattered clouds at 5000 feet AGL
scattered clouds at 7000 feet AGL
overcast cloud deck at 10000 feet AGL
Present Weather: RA BR  (rain, mist)
KBKV 231427Z 13004KT 5SM RA BR SCT050 SCT070 OVC100 22/22 A3009 RMK AO2 LTG DSNT SE-W P0016 T02220217

Conditions at: KBKV observed 23 July 2017  14:17 UTC
Temperature: 22.2°C (72°F)
Dewpoint: 21.7°C (71°F) [RH = 97%]
Pressure (altimeter): 30.09 inches Hg (1019.0 mb)
Winds: from the SSW (210 degrees) at 5 MPH (4 knots; 2.1 m/s)
Visibility: 2.00 miles (3.22 km)
Ceiling: 4900 feet AGL
Clouds: few clouds at 2800 feet AGL
broken clouds at 4900 feet AGL
overcast cloud deck at 9000 feet AGL
Present Weather: +RA BR  (heavy rain, mist)
KBKV 231417Z 21004KT 2SM +RA BR FEW028 BKN049 OVC090 22/22 A3009 RMK AO2 LTG DSNT S-W P0015 T02220217

Conditions at: KBKV observed 23 July 2017  14:03 UTC
Temperature: 22.8°C (73°F)
Dewpoint: 21.7°C (71°F) [RH = 94%]
Pressure (altimeter): 30.10 inches Hg (1019.4 mb)
Winds: from the SSW (210 degrees) at 6 MPH (5 knots; 2.6 m/s)
Visibility: 1.50 miles (2.41 km)
Ceiling: 4500 feet AGL
Clouds: few clouds at 3000 feet AGL
broken clouds at 4500 feet AGL
overcast cloud deck at 6500 feet AGL
Present Weather: +RA BR  (heavy rain, mist)
KBKV 231403Z 21005KT 1 1/2SM +RA BR FEW030 BKN045 OVC065 23/22 A3010 RMK AO2 LTG DSNT S AND SW P0007 T02280217

Conditions at: KBKV observed 23 July 2017  13:56 UTC
Temperature: 22.8°C (73°F)
Dewpoint: 21.7°C (71°F) [RH = 94%]
Pressure (altimeter): 30.09 inches Hg (1019.0 mb)
Winds: from the W (270 degrees) at 7 MPH (6 knots; 3.1 m/s)
Visibility: 2.00 miles (3.22 km)
Ceiling: 4200 feet AGL
Clouds: few clouds at 2900 feet AGL
broken clouds at 4200 feet AGL
overcast cloud deck at 7000 feet AGL
Present Weather: RA BR  (rain, mist)
KBKV 231356Z 27006KT 2SM RA BR FEW029 BKN042 OVC070 23/22 A3009 RMK AO2 LTG DSNT S AND SW P0002 T02280217

Conditions at: KBKV observed 23 July 2017  13:53 UTC
Temperature: 22.8°C (73°F)
Dewpoint: 21.7°C (71°F) [RH = 94%]
Pressure (altimeter): 30.09 inches Hg (1019.0 mb)
[Sea-level pressure: 1018.8 mb]
Winds: from the W (260 degrees) at 6 MPH (5 knots; 2.6 m/s)
Visibility: 1.25 miles (2.01 km)
Ceiling: 3900 feet AGL
Clouds: few clouds at 2900 feet AGL
broken clouds at 3900 feet AGL
overcast cloud deck at 5500 feet AGL
Present Weather: +RA BR  (heavy rain, mist)
KBKV 231353Z 26005KT 1 1/4SM +RA BR FEW029 BKN039 OVC055 23/22 A3009 RMK AO2 LTG DSNT S-W TSB33E48 SLP188 P0033 T02280217

Conditions at: KBKV observed 23 July 2017  13:48 UTC
Temperature: 23.0°C (73°F)
Dewpoint: 22.0°C (72°F) [RH = 94%]
Pressure (altimeter): 30.09 inches Hg (1019.0 mb)
Winds: from the W (280 degrees) at 3 MPH (3 knots; 1.6 m/s)
Visibility: 1.50 miles (2.41 km)
Ceiling: 4300 feet AGL
Clouds: scattered clouds at 3400 feet AGL
broken clouds at 4300 feet AGL
overcast cloud deck at 6000 feet AGL
Present Weather: +RA BR  (heavy rain, mist)
KBKV 231348Z 28003KT 1 1/2SM +RA BR SCT034 BKN043 OVC060 23/22 A3009 RMK AO2 LTG DSNT S-W TSB33E48 P0032

Conditions at: KBKV observed 23 July 2017  13:46 UTC
Temperature: 22.8°C (73°F)
Dewpoint: 21.7°C (71°F) [RH = 94%]
Pressure (altimeter): 30.09 inches Hg (1019.0 mb)
Winds: calm
Visibility: 1.75 miles (2.82 km)
Ceiling: 4600 feet AGL
Clouds: scattered clouds at 3600 feet AGL
broken clouds at 4600 feet AGL
overcast cloud deck at 5500 feet AGL
Present Weather: TSRA BR  (rain associated with thunderstorm(s), mist)
KBKV 231346Z 00000KT 1 3/4SM TSRA BR SCT036 BKN046 OVC055 23/22 A3009 RMK AO2 LTG DSNT S-W TSB33 P0031 T02280217

Conditions at: KBKV observed 23 July 2017  13:39 UTC
Temperature: 22.8°C (73°F)
Dewpoint: 22.2°C (72°F) [RH = 96%]
Pressure (altimeter): 30.10 inches Hg (1019.4 mb)
Winds: calm
Visibility: 4 miles (6 km)
Ceiling: 4900 feet AGL
Clouds: few clouds at 2400 feet AGL
scattered clouds at 3700 feet AGL
overcast cloud deck at 4900 feet AGL
Present Weather: TSRA BR  (rain associated with thunderstorm(s), mist)
KBKV 231339Z 00000KT 4SM TSRA BR FEW024 SCT037 OVC049 23/22 A3010 RMK AO2 LTG DSNT S-W TSB33 P0026 T02280222

Conditions at: KBKV observed 23 July 2017  13:27 UTC
Temperature: 22.8°C (73°F)
Dewpoint: 21.7°C (71°F) [RH = 94%]
Pressure (altimeter): 30.09 inches Hg (1019.0 mb)
Winds: from the W (280 degrees) at 7 MPH (6 knots; 3.1 m/s)
Visibility: 3 miles (5 km)
Ceiling: 4000 feet AGL
Clouds: scattered clouds at 2300 feet AGL
broken clouds at 4000 feet AGL
overcast cloud deck at 5500 feet AGL
Present Weather: +RA BR  (heavy rain, mist)
KBKV 231327Z 28006KT 3SM +RA BR SCT023 BKN040 OVC055 23/22 A3009 RMK AO2 LTG DSNT S-W P0024 T02280217

Conditions at: KBKV observed 23 July 2017  13:25 UTC
Temperature: 22.8°C (73°F)
Dewpoint: 21.7°C (71°F) [RH = 94%]
Pressure (altimeter): 30.09 inches Hg (1019.0 mb)
Winds: from the W (280 degrees) at 8 MPH (7 knots; 3.6 m/s)
Visibility: 1.75 miles (2.82 km)
Ceiling: 4800 feet AGL
Clouds: few clouds at 1600 feet AGL
broken clouds at 4800 feet AGL
overcast cloud deck at 5500 feet AGL
Present Weather: +RA BR  (heavy rain, mist)
KBKV 231325Z 28007KT 1 3/4SM +RA BR FEW016 BKN048 OVC055 23/22 A3009 RMK AO2 VIS 3/4V4 LTG DSNT S-W P0024 T02280217

Conditions at: KBKV observed 23 July 2017  13:21 UTC
Temperature: 22.8°C (73°F)
Dewpoint: 21.7°C (71°F) [RH = 94%]
Pressure (altimeter): 30.09 inches Hg (1019.0 mb)
Winds: from the W (270 degrees) at 8 MPH (7 knots; 3.6 m/s)
Visibility: 0.75 miles (1.21 km)
Ceiling: 2400 feet AGL
Clouds: scattered clouds at 1400 feet AGL
broken clouds at 2400 feet AGL
overcast cloud deck at 5000 feet AGL
Present Weather: RA BR  (rain, mist)
KBKV 231321Z 27007KT 3/4SM RA BR SCT014 BKN024 OVC050 23/22 A3009 RMK AO2 LTG DSNT S-W P0021 T02280217

Conditions at: KBKV observed 23 July 2017  13:13 UTC
Temperature: 23.3°C (74°F)
Dewpoint: 21.7°C (71°F) [RH = 91%]
Pressure (altimeter): 30.09 inches Hg (1019.0 mb)
Winds: from the WSW (250 degrees) at 9 MPH (8 knots; 4.2 m/s)
Visibility: 1.25 miles (2.01 km)
Ceiling: 2400 feet AGL
Clouds: few clouds at 1400 feet AGL
broken clouds at 2400 feet AGL
overcast cloud deck at 5000 feet AGL
Present Weather: +RA BR  (heavy rain, mist)
KBKV 231313Z 25008KT 1 1/4SM +RA BR FEW014 BKN024 OVC050 23/22 A3009 RMK AO2 LTG DSNT S-W P0016 T02330217

Conditions at: KBKV observed 23 July 2017  13:06 UTC
Temperature: 23.3°C (74°F)
Dewpoint: 21.7°C (71°F) [RH = 91%]
Pressure (altimeter): 30.09 inches Hg (1019.0 mb)
Winds: from the WSW (250 degrees) at 12 MPH (10 knots; 5.2 m/s)
gusting to 22 MPH (19 knots; 9.9 m/s)
Visibility: 7 miles (11 km)
Ceiling: 2500 feet AGL
Clouds: broken clouds at 2500 feet AGL
broken clouds at 5000 feet AGL
overcast cloud deck at 9000 feet AGL
Present Weather: RA  (rain)
KBKV 231306Z 25010G19KT 7SM RA BKN025 BKN050 OVC090 23/22 A3009 RMK AO2 LTG DSNT S AND SW P0003 T02330217

Conditions at: KBKV observed 23 July 2017  12:53 UTC
Temperature: 24.4°C (76°F)
Dewpoint: 23.9°C (75°F) [RH = 97%]
Pressure (altimeter): 30.08 inches Hg (1018.7 mb)
[Sea-level pressure: 1018.3 mb]
Winds: from the SW (220 degrees) at 3 MPH (3 knots; 1.6 m/s)
Visibility: 10 or more miles (16+ km)
Ceiling: 9000 feet AGL
Clouds: scattered clouds at 5000 feet AGL
overcast cloud deck at 9000 feet AGL
Present Weather: VCTS -RA  (thunderstorm in vicinity, light rain)
KBKV 231253Z 22003KT 10SM VCTS -RA SCT050 OVC090 24/24 A3008 RMK AO2 LTG DSNT SW-N RAB21 SLP183 P0000 T02440239

Conditions at: KBKV observed 23 July 2017  11:53 UTC
Temperature: 24.4°C (76°F)
Dewpoint: 23.3°C (74°F) [RH = 94%]
Pressure (altimeter): 30.06 inches Hg (1018.0 mb)
[Sea-level pressure: 1017.7 mb]
Winds: from the SSE (160 degrees) at 5 MPH (4 knots; 2.1 m/s)
Visibility: 10 or more miles (16+ km)
Ceiling: at least 12,000 feet AGL
Clouds: sky clear below 12,000 feet AGL
Present Weather: no significant weather observed at this time
KBKV 231153Z 16004KT 10SM CLR 24/23 A3006 RMK AO2 LTG DSNT W AND NW PRESRR SLP177 70042 T02440233 10244 20239 53014

Conditions at: KBKV observed 23 July 2017  10:53 UTC
Temperature: 23.9°C (75°F)
Dewpoint: 23.3°C (74°F) [RH = 96%]
Pressure (altimeter): 30.02 inches Hg (1016.7 mb)
[Sea-level pressure: 1016.4 mb]
Winds: from the SE (140 degrees) at 5 MPH (4 knots; 2.1 m/s)
Visibility: 10 or more miles (16+ km)
Ceiling: at least 12,000 feet AGL
Clouds: sky clear below 12,000 feet AGL
Present Weather: no significant weather observed at this time
KBKV 231053Z 14004KT 10SM CLR 24/23 A3002 RMK AO2 LTG DSNT W AND NW SLP164 T02390233

Conditions at: KBKV observed 23 July 2017  09:53 UTC
Temperature: 23.9°C (75°F)
Dewpoint: 23.3°C (74°F) [RH = 96%]
Pressure (altimeter): 30.02 inches Hg (1016.7 mb)
[Sea-level pressure: 1016.3 mb]
Winds: from the SE (130 degrees) at 3 MPH (3 knots; 1.6 m/s)
Visibility: 10 or more miles (16+ km)
Ceiling: at least 12,000 feet AGL
Clouds: few clouds at 1900 feet AGL
Present Weather: automated observation with no human augmentation;
there may or may not be significant weather present at this time
KBKV 230953Z AUTO 13003KT 10SM FEW019 24/23 A3002 RMK AO2 LTG DSNT W SLP163 T02390233

Conditions at: KBKV observed 23 July 2017  08:53 UTC
Temperature: 24.4°C (76°F)
Dewpoint: 23.3°C (74°F) [RH = 94%]
Pressure (altimeter): 30.02 inches Hg (1016.7 mb)
[Sea-level pressure: 1016.3 mb]
Winds: from the SSE (160 degrees) at 5 MPH (4 knots; 2.1 m/s)
Visibility: 10 or more miles (16+ km)
Ceiling: at least 12,000 feet AGL
Clouds: sky clear below 12,000 feet AGL
Present Weather: automated observation with no human augmentation;
there may or may not be significant weather present at this time
KBKV 230853Z AUTO 16004KT 10SM CLR 24/23 A3002 RMK AO2 SLP163 T02440233 55010

Conditions at: KBKV observed 23 July 2017  07:53 UTC
Temperature: 24.4°C (76°F)
Dewpoint: 23.3°C (74°F) [RH = 94%]
Pressure (altimeter): 30.02 inches Hg (1016.7 mb)
[Sea-level pressure: 1016.2 mb]
Winds: from the SSE (160 degrees) at 7 MPH (6 knots; 3.1 m/s)
Visibility: 10 or more miles (16+ km)
Ceiling: at least 12,000 feet AGL
Clouds: sky clear below 12,000 feet AGL
Present Weather: automated observation with no human augmentation;
there may or may not be significant weather present at this time
KBKV 230753Z AUTO 16006KT 10SM CLR 24/23 A3002 RMK AO2 SLP162 T02440233

Conditions at: KBKV observed 23 July 2017  06:53 UTC
Temperature: 24.4°C (76°F)
Dewpoint: 23.3°C (74°F) [RH = 94%]
Pressure (altimeter): 30.03 inches Hg (1017.0 mb)
[Sea-level pressure: 1016.7 mb]
Winds: from the SSE (160 degrees) at 5 MPH (4 knots; 2.1 m/s)
Visibility: 10 or more miles (16+ km)
Ceiling: at least 12,000 feet AGL
Clouds: sky clear below 12,000 feet AGL
Present Weather: automated observation with no human augmentation;
there may or may not be significant weather present at this time
KBKV 230653Z AUTO 16004KT 10SM CLR 24/23 A3003 RMK AO2 SLP167 T02440233

Conditions at: KBKV observed 23 July 2017  05:53 UTC
Temperature: 24.4°C (76°F)
Dewpoint: 23.9°C (75°F) [RH = 97%]
Pressure (altimeter): 30.05 inches Hg (1017.7 mb)
[Sea-level pressure: 1017.3 mb]
Winds: from the SE (140 degrees) at 3 MPH (3 knots; 1.6 m/s)
Visibility: 10 or more miles (16+ km)
Ceiling: at least 12,000 feet AGL
Clouds: sky clear below 12,000 feet AGL
Present Weather: automated observation with no human augmentation;
there may or may not be significant weather present at this time
KBKV 230553Z AUTO 14003KT 10SM CLR 24/24 A3005 RMK AO2 SLP173 60000 T02440239 10261 20244 58003

Conditions at: KBKV observed 23 July 2017  04:53 UTC
Temperature: 25.0°C (77°F)
Dewpoint: 23.9°C (75°F) [RH = 94%]
Pressure (altimeter): 30.06 inches Hg (1018.0 mb)
[Sea-level pressure: 1017.7 mb]
Winds: from the SSE (150 degrees) at 6 MPH (5 knots; 2.6 m/s)
Visibility: 10 or more miles (16+ km)
Ceiling: at least 12,000 feet AGL
Clouds: sky clear below 12,000 feet AGL
Present Weather: automated observation with no human augmentation;
there may or may not be significant weather present at this time
KBKV 230453Z AUTO 15005KT 10SM CLR 25/24 A3006 RMK AO2 SLP177 T02500239 403110228

Conditions at: KBKV observed 23 July 2017  03:53 UTC
Temperature: 25.0°C (77°F)
Dewpoint: 23.9°C (75°F) [RH = 94%]
Pressure (altimeter): 30.06 inches Hg (1018.0 mb)
[Sea-level pressure: 1017.6 mb]
Winds: from the S (170 degrees) at 5 MPH (4 knots; 2.1 m/s)
Visibility: 8 miles (13 km)
Ceiling: at least 12,000 feet AGL
Clouds: sky clear below 12,000 feet AGL
Present Weather: automated observation with no human augmentation;
there may or may not be significant weather present at this time
KBKV 230353Z AUTO 17004KT 8SM CLR 25/24 A3006 RMK AO2 RAE00 SLP176 P0000 T02500239

Conditions at: KBKV observed 23 July 2017  03:34 UTC
Temperature: 25.0°C (77°F)
Dewpoint: 24.4°C (76°F) [RH = 96%]
Pressure (altimeter): 30.06 inches Hg (1018.0 mb)
Winds: from the S (170 degrees) at 5 MPH (4 knots; 2.1 m/s)
Visibility: 9 miles (14 km)
Ceiling: at least 12,000 feet AGL
Clouds: few clouds at 300 feet AGL
Present Weather: automated observation with no human augmentation;
there may or may not be significant weather present at this time
KBKV 230334Z AUTO 17004KT 9SM FEW003 25/24 A3006 RMK AO2 RAE00 P0000 T02500244

Conditions at: KBKV observed 23 July 2017  02:53 UTC
Temperature: 25.0°C (77°F)
Dewpoint: 24.4°C (76°F) [RH = 96%]
Pressure (altimeter): 30.06 inches Hg (1018.0 mb)
[Sea-level pressure: 1017.6 mb]
Winds: from the S (190 degrees) at 5 MPH (4 knots; 2.1 m/s)
Visibility: 10 or more miles (16+ km)
Ceiling: at least 12,000 feet AGL
Clouds: sky clear below 12,000 feet AGL
Present Weather: -RA  (light rain)
KBKV 230253Z AUTO 19004KT 10SM -RA CLR 25/24 A3006 RMK AO2 RAB51 SLP176 P0000 60000 T02500244 53001

Conditions at: KBKV observed 23 July 2017  01:53 UTC
Temperature: 25.0°C (77°F)
Dewpoint: 23.9°C (75°F) [RH = 94%]
Pressure (altimeter): 30.05 inches Hg (1017.7 mb)
[Sea-level pressure: 1017.2 mb]
Winds: from the SSE (160 degrees) at 5 MPH (4 knots; 2.1 m/s)
Visibility: 10 or more miles (16+ km)
Ceiling: at least 12,000 feet AGL
Clouds: sky clear below 12,000 feet AGL
Present Weather: automated observation with no human augmentation;
there may or may not be significant weather present at this time
KBKV 230153Z AUTO 16004KT 10SM CLR 25/24 A3005 RMK AO2 SLP172 T02500239

Conditions at: KBKV observed 23 July 2017  00:53 UTC
Temperature: 25.0°C (77°F)
Dewpoint: 23.9°C (75°F) [RH = 94%]
Pressure (altimeter): 30.05 inches Hg (1017.7 mb)
[Sea-level pressure: 1017.5 mb]
Winds: from the S (170 degrees) at 5 MPH (4 knots; 2.1 m/s)
Visibility: 10 or more miles (16+ km)
Ceiling: at least 12,000 feet AGL
Clouds: sky clear below 12,000 feet AGL
Present Weather: no significant weather observed at this time
KBKV 230053Z 17004KT 10SM CLR 25/24 A3005 RMK AO2 RAB36E42 SLP175 P0000 T02500239

Conditions at: KBKV observed 23 July 2017  00:29 UTC
Temperature: 25.6°C (78°F)
Dewpoint: 24.4°C (76°F) [RH = 93%]
Pressure (altimeter): 30.05 inches Hg (1017.7 mb)
Winds: from the SSE (160 degrees) at 5 MPH (4 knots; 2.1 m/s)
Visibility: 10 or more miles (16+ km)
Ceiling: at least 12,000 feet AGL
Clouds: few clouds at 200 feet AGL
Present Weather: no significant weather observed at this time
KBKV 230029Z 16004KT 10SM FEW002 26/24 A3005 RMK AO2 T02560244

Conditions at: KBKV observed 22 July 2017  23:53 UTC
Temperature: 26.1°C (79°F)
Dewpoint: 25.0°C (77°F) [RH = 94%]
Pressure (altimeter): 30.05 inches Hg (1017.7 mb)
[Sea-level pressure: 1017.4 mb]
Winds: from the SSE (160 degrees) at 6 MPH (5 knots; 2.6 m/s)
Visibility: 10 or more miles (16+ km)
Ceiling: at least 12,000 feet AGL
Clouds: sky clear below 12,000 feet AGL
Present Weather: no significant weather observed at this time
KBKV 222353Z 16005KT 10SM CLR 26/25 A3005 RMK AO2 SLP174 60000 T02610250 10289 20256 58000

Conditions at: KBKV observed 22 July 2017  22:53 UTC
Temperature: 27.2°C (81°F)
Dewpoint: 25.6°C (78°F) [RH = 91%]
Pressure (altimeter): 30.05 inches Hg (1017.7 mb)
[Sea-level pressure: 1017.5 mb]
Winds: from the E (100 degrees) at 3 MPH (3 knots; 1.6 m/s)
Visibility: 10 or more miles (16+ km)
Ceiling: at least 12,000 feet AGL
Clouds: sky clear below 12,000 feet AGL
Present Weather: no significant weather observed at this time
KBKV 222253Z 10003KT 10SM CLR 27/26 A3005 RMK AO2 RAB2158E37 SLP175 P0000 T02720256

Conditions at: KBKV observed 22 July 2017  21:53 UTC
Temperature: 27.8°C (82°F)
Dewpoint: 25.0°C (77°F) [RH = 85%]
Pressure (altimeter): 30.06 inches Hg (1018.0 mb)
[Sea-level pressure: 1017.5 mb]
Winds: from the ESE (120 degrees) at 5 MPH (4 knots; 2.1 m/s)
Visibility: 10 or more miles (16+ km)
Ceiling: at least 12,000 feet AGL
Clouds: few clouds at 7000 feet AGL
scattered clouds at 9000 feet AGL
Present Weather: no significant weather observed at this time
KBKV 222153Z 12004KT 10SM FEW070 SCT090 28/25 A3006 RMK AO2 SLP175 T02780250

Conditions at: KBKV observed 22 July 2017  20:53 UTC
Temperature: 28.9°C (84°F)
Dewpoint: 25.0°C (77°F) [RH = 80%]
Pressure (altimeter): 30.05 inches Hg (1017.7 mb)
[Sea-level pressure: 1017.5 mb]
Winds: from the SE (140 degrees) at 7 MPH (6 knots; 3.1 m/s)
Visibility: 10 or more miles (16+ km)
Ceiling: at least 12,000 feet AGL
Clouds: sky clear below 12,000 feet AGL
Present Weather: no significant weather observed at this time
KBKV 222053Z 14006KT 10SM CLR 29/25 A3005 RMK AO2 SLP175 60000 T02890250 57013

Conditions at: KBKV observed 22 July 2017  19:53 UTC
Temperature: 27.2°C (81°F)
Dewpoint: 24.4°C (76°F) [RH = 85%]
Pressure (altimeter): 30.06 inches Hg (1018.0 mb)
[Sea-level pressure: 1017.8 mb]
Winds: from the S (170 degrees) at 3 MPH (3 knots; 1.6 m/s)
Visibility: 10 or more miles (16+ km)
Ceiling: at least 12,000 feet AGL
Clouds: sky clear below 12,000 feet AGL
Present Weather: no significant weather observed at this time
KBKV 221953Z 17003KT 10SM CLR 27/24 A3006 RMK AO2 RAE18 SLP178 P0000 T02720244

Conditions at: KBKV observed 22 July 2017  18:53 UTC
Temperature: 26.1°C (79°F)
Dewpoint: 23.9°C (75°F) [RH = 88%]
Pressure (altimeter): 30.08 inches Hg (1018.7 mb)
[Sea-level pressure: 1018.5 mb]
Winds: calm
Visibility: 10 or more miles (16+ km)
Ceiling: at least 12,000 feet AGL
Clouds: few clouds at 4300 feet AGL
Present Weather: -RA  (light rain)
KBKV 221853Z 00000KT 10SM -RA FEW043 26/24 A3008 RMK AO2 RAB47 SLP185 P0000 T02610239

Conditions at: KBKV observed 22 July 2017  18:00 UTC
Temperature: 26.1°C (79°F)
Dewpoint: 23.3°C (74°F) [RH = 85%]
Pressure (altimeter): 30.09 inches Hg (1019.0 mb)
Winds: from the ESE (120 degrees) at 3 MPH (3 knots; 1.6 m/s)
Visibility: 10 or more miles (16+ km)
Ceiling: at least 12,000 feet AGL
Clouds: sky clear below 12,000 feet AGL
Present Weather: no significant weather observed at this time
KBKV 221800Z 12003KT 10SM CLR 26/23 A3009 RMK AO2 LTG DSNT NE-S T02610233

Conditions at: KBKV observed 22 July 2017  17:53 UTC
Temperature: 26.1°C (79°F)
Dewpoint: 23.3°C (74°F) [RH = 85%]
Pressure (altimeter): 30.09 inches Hg (1019.0 mb)
[Sea-level pressure: 1018.8 mb]
Winds: calm
Visibility: 10 or more miles (16+ km)
Ceiling: at least 12,000 feet AGL
Clouds: sky clear below 12,000 feet AGL
Present Weather: VCTS  (thunderstorm in vicinity)
KBKV 221753Z 00000KT 10SM VCTS CLR 26/23 A3009 RMK AO2 LTG DSNT NE AND S RAB1654E03 TSE1654 SLP188 P0000 60042 T02610233 10311 20244 58003

Conditions at: KBKV observed 22 July 2017  17:24 UTC
Temperature: 26.1°C (79°F)
Dewpoint: 22.8°C (73°F) [RH = 82%]
Pressure (altimeter): 30.11 inches Hg (1019.7 mb)
Winds: from the W (260 degrees) at 7 MPH (6 knots; 3.1 m/s)
Visibility: 10 or more miles (16+ km)
Ceiling: at least 12,000 feet AGL
Clouds: few clouds at 11000 feet AGL
Present Weather: VCTS  (thunderstorm in vicinity)
KBKV 221724Z 26006KT 10SM VCTS FEW110 26/23 A3011 RMK AO2 LTG DSNT E-SW RAB1654E03 TSE1654 P0000 T02610228

Conditions at: KBKV observed 22 July 2017  17:00 UTC
Temperature: 26.7°C (80°F)
Dewpoint: 23.9°C (75°F) [RH = 85%]
Pressure (altimeter): 30.10 inches Hg (1019.4 mb)
Winds: from the WNW (300 degrees) at 8 MPH (7 knots; 3.6 m/s)
Visibility: 10 or more miles (16+ km)
Ceiling: at least 12,000 feet AGL
Clouds: few clouds at 2500 feet AGL
scattered clouds at 4300 feet AGL
Present Weather: -RA  (light rain)
KBKV 221700Z 30007KT 10SM -RA FEW025 SCT043 27/24 A3010 RMK AO2 LTG DSNT ALQDS RAB1654 TSE1654 P0000 T02670239

Conditions at: KBKV observed 22 July 2017  16:53 UTC
Temperature: 26.1°C (79°F)
Dewpoint: 23.9°C (75°F) [RH = 88%]
Pressure (altimeter): 30.11 inches Hg (1019.7 mb)
[Sea-level pressure: 1019.3 mb]
Winds: from the WNW (290 degrees) at 8 MPH (7 knots; 3.6 m/s)
Visibility: 10 or more miles (16+ km)
Ceiling: 4700 feet AGL
Clouds: scattered clouds at 2800 feet AGL
scattered clouds at 3900 feet AGL
broken clouds at 4700 feet AGL
Present Weather: TS  (thunderstorm)
KBKV 221653Z 29007KT 10SM TS SCT028 SCT039 BKN047 26/24 A3011 RMK AO2 LTG DSNT ALQDS RAE10 TSE35B39 SLP193 P0001 T02610239

Conditions at: KBKV observed 22 July 2017  15:53 UTC
Temperature: 25.6°C (78°F)
Dewpoint: 23.9°C (75°F) [RH = 90%]
Pressure (altimeter): 30.11 inches Hg (1019.7 mb)
[Sea-level pressure: 1019.2 mb]
Winds: from the WSW (250 degrees) at 5 MPH (4 knots; 2.1 m/s)
Visibility: 8 miles (13 km)
Ceiling: 9000 feet AGL
Clouds: few clouds at 2800 feet AGL
broken clouds at 9000 feet AGL
overcast cloud deck at 11000 feet AGL
Present Weather: TSRA  (rain associated with thunderstorm(s))
KBKV 221553Z 25004KT 8SM TSRA FEW028 BKN090 OVC110 26/24 A3011 RMK AO2 PK WND 28031/1525 WSHFT 1508 LTG DSNT NE-SE RAB12 TSB04E49B50 SLP192 P0041 T02560239

Conditions at: KBKV observed 22 July 2017  15:38 UTC
Temperature: 25.0°C (77°F)
Dewpoint: 22.8°C (73°F) [RH = 88%]
Pressure (altimeter): 30.11 inches Hg (1019.7 mb)
Winds: from the NW (320 degrees) at 6 MPH (5 knots; 2.6 m/s)
Visibility: 4 miles (6 km)
Ceiling: 3300 feet AGL
Clouds: scattered clouds at 2400 feet AGL
broken clouds at 3300 feet AGL
overcast cloud deck at 11000 feet AGL
Present Weather: TSRA BR  (rain associated with thunderstorm(s), mist)
KBKV 221538Z 32005KT 4SM TSRA BR SCT024 BKN033 OVC110 25/23 A3011 RMK AO2 PK WND 28031/1525 WSHFT 1508 LTG DSNT NE AND SE AND W RAB12 TSB04 P0040 T02500228

Conditions at: KBKV observed 22 July 2017  15:36 UTC
Temperature: 25.0°C (77°F)
Dewpoint: 22.2°C (72°F) [RH = 84%]
Pressure (altimeter): 30.11 inches Hg (1019.7 mb)
Winds: from the NW (310 degrees) at 6 MPH (5 knots; 2.6 m/s)
Visibility: 1.00 miles (1.61 km)
Ceiling: 3300 feet AGL
Clouds: scattered clouds at 2200 feet AGL
broken clouds at 3300 feet AGL
overcast cloud deck at 9500 feet AGL
Present Weather: TSRA  (rain associated with thunderstorm(s))
KBKV 221536Z 31005KT 1SM TSRA SCT022 BKN033 OVC095 25/22 A3011 RMK AO2 PK WND 28031/1525 WSHFT 1508 LTG DSNT NE AND SE AND W RAB12 TSB04 P0040 T02500222

Conditions at: KBKV observed 22 July 2017  15:27 UTC
Temperature: 25.0°C (77°F)
Dewpoint: 22.2°C (72°F) [RH = 84%]
Pressure (altimeter): 30.10 inches Hg (1019.4 mb)
Winds: from the NW (310 degrees) at 12 MPH (10 knots; 5.2 m/s)
gusting to 36 MPH (31 knots; 16.1 m/s)
Visibility: 0.50 miles (0.80 km)
Ceiling: 2600 feet AGL
Clouds: few clouds at 1400 feet AGL
broken clouds at 2600 feet AGL
overcast cloud deck at 4000 feet AGL
Present Weather: +TSRA  (heavy rain associated with thunderstorm(s))
KBKV 221527Z 31010G31KT 240V070 1/2SM +TSRA FEW014 BKN026 OVC040 25/22 A3010 RMK AO2 PK WND 28031/1525 WSHFT 1508 LTG DSNT ALQDS RAB12 TSB04 P0038 T02500222

Conditions at: KBKV observed 22 July 2017  15:24 UTC
Temperature: 25.6°C (78°F)
Dewpoint: 23.3°C (74°F) [RH = 87%]
Pressure (altimeter): 30.12 inches Hg (1020.1 mb)
Winds: from the WNW (290 degrees) at 22 MPH (19 knots; 9.9 m/s)
Visibility: 1.00 miles (1.61 km)
Ceiling: 3400 feet AGL
Clouds: scattered clouds at 2400 feet AGL
broken clouds at 3400 feet AGL
overcast cloud deck at 7000 feet AGL
Present Weather: +TSRA BR  (heavy rain associated with thunderstorm(s), mist)
KBKV 221524Z 29019KT 1SM +TSRA BR SCT024 BKN034 OVC070 26/23 A3012 RMK AO2 WSHFT 1508 LTG DSNT SE-W RAB12 TSB04 P0019 T02560233

Conditions at: KBKV observed 22 July 2017  15:22 UTC
Temperature: 26.1°C (79°F)
Dewpoint: 23.9°C (75°F) [RH = 88%]
Pressure (altimeter): 30.11 inches Hg (1019.7 mb)
Winds: from the WNW (290 degrees) at 17 MPH (15 knots; 7.8 m/s)
gusting to 24 MPH (21 knots; 10.9 m/s)
Visibility: 1.75 miles (2.82 km)
Ceiling: 2700 feet AGL
Clouds: broken clouds at 2700 feet AGL
broken clouds at 4200 feet AGL
overcast cloud deck at 7000 feet AGL
Present Weather: TSRA BR  (rain associated with thunderstorm(s), mist)
KBKV 221522Z 29015G21KT 1 3/4SM TSRA BR BKN027 BKN042 OVC070 26/24 A3011 RMK AO2 WSHFT 1508 VIS 1/2V5 LTG DSNT SE-W RAB12 TSB04 P0010 T02610239

Conditions at: KBKV observed 22 July 2017  15:10 UTC
Temperature: 30.6°C (87°F)
Dewpoint: 24.4°C (76°F) [RH = 70%]
Pressure (altimeter): 30.10 inches Hg (1019.4 mb)
Winds: from the W (260 degrees) at 16 MPH (14 knots; 7.3 m/s)
gusting to 20 MPH (17 knots; 8.8 m/s)
Visibility: 10 or more miles (16+ km)
Ceiling: 5500 feet AGL
Clouds: scattered clouds at 2400 feet AGL
scattered clouds at 4100 feet AGL
broken clouds at 5500 feet AGL
Present Weather: TS  (thunderstorm)
KBKV 221510Z 26014G17KT 10SM TS SCT024 SCT041 BKN055 31/24 A3010 RMK AO2 LTG DSNT SE AND S TSB04 T03060244

Conditions at: KBKV observed 22 July 2017  14:53 UTC
Temperature: 31.1°C (88°F)
Dewpoint: 25.0°C (77°F) [RH = 70%]
Pressure (altimeter): 30.10 inches Hg (1019.4 mb)
[Sea-level pressure: 1019.0 mb]
Winds: from the SSW (210 degrees) at 9 MPH (8 knots; 4.2 m/s)
Visibility: 10 or more miles (16+ km)
Ceiling: at least 12,000 feet AGL
Clouds: few clouds at 11000 feet AGL
Present Weather: VCTS  (thunderstorm in vicinity)
KBKV 221453Z 21008KT 10SM VCTS FEW110 31/25 A3010 RMK AO2 LTG DSNT ALQDS SLP190 T03110250 50005

Conditions at: KBKV observed 22 July 2017  13:53 UTC
Temperature: 28.9°C (84°F)
Dewpoint: 25.0°C (77°F) [RH = 80%]
Pressure (altimeter): 30.11 inches Hg (1019.7 mb)
[Sea-level pressure: 1019.2 mb]
Winds: from the S (180 degrees) at 9 MPH (8 knots; 4.2 m/s)
Visibility: 10 or more miles (16+ km)
Ceiling: at least 12,000 feet AGL
Clouds: sky clear below 12,000 feet AGL
Present Weather: no significant weather observed at this time
KBKV 221353Z 18008KT 10SM CLR 29/25 A3011 RMK AO2 LTG DSNT ALQDS SLP192 T02890250

Conditions at: KBKV observed 22 July 2017  12:53 UTC
Temperature: 27.2°C (81°F)
Dewpoint: 24.4°C (76°F) [RH = 85%]
Pressure (altimeter): 30.10 inches Hg (1019.4 mb)
[Sea-level pressure: 1019.1 mb]
Winds: from the S (180 degrees) at 6 MPH (5 knots; 2.6 m/s)
Visibility: 10 or more miles (16+ km)
Ceiling: at least 12,000 feet AGL
Clouds: few clouds at 7000 feet AGL
Present Weather: no significant weather observed at this time
KBKV 221253Z 18005KT 10SM FEW070 27/24 A3010 RMK AO2 LTG DSNT S-NW SLP191 T02720244

Conditions at: KBKV observed 22 July 2017  11:53 UTC
Temperature: 24.4°C (76°F)
Dewpoint: 23.3°C (74°F) [RH = 94%]
Pressure (altimeter): 30.08 inches Hg (1018.7 mb)
[Sea-level pressure: 1018.5 mb]
Winds: from the SSE (150 degrees) at 7 MPH (6 knots; 3.1 m/s)
Visibility: 10 or more miles (16+ km)
Ceiling: at least 12,000 feet AGL
Clouds: sky clear below 12,000 feet AGL
Present Weather: automated observation with no human augmentation;
there may or may not be significant weather present at this time
KBKV 221153Z AUTO 15006KT 10SM CLR 24/23 A3008 RMK AO2 LTG DSNT SW-NW SLP185 70079 T02440233 10244 20228 53018

Conditions at: KBKV observed 22 July 2017  10:53 UTC
Temperature: 23.3°C (74°F)
Dewpoint: 22.2°C (72°F) [RH = 94%]
Pressure (altimeter): 30.06 inches Hg (1018.0 mb)
[Sea-level pressure: 1017.5 mb]
Winds: from the SE (130 degrees) at 3 MPH (3 knots; 1.6 m/s)
Visibility: 8 miles (13 km)
Ceiling: at least 12,000 feet AGL
Clouds: sky clear below 12,000 feet AGL
Present Weather: automated observation with no human augmentation;
there may or may not be significant weather present at this time
KBKV 221053Z AUTO 13003KT 8SM CLR 23/22 A3006 RMK AO2 LTG DSNT NW SLP175 T02330222

Conditions at: KBKV observed 22 July 2017  09:53 UTC
Temperature: 22.8°C (73°F)
Dewpoint: 22.2°C (72°F) [RH = 96%]
Pressure (altimeter): 30.04 inches Hg (1017.4 mb)
[Sea-level pressure: 1016.9 mb]
Winds: from the SE (130 degrees) at 3 MPH (3 knots; 1.6 m/s)
Visibility: 9 miles (14 km)
Ceiling: at least 12,000 feet AGL
Clouds: sky clear below 12,000 feet AGL
Present Weather: automated observation with no human augmentation;
there may or may not be significant weather present at this time
KBKV 220953Z AUTO 13003KT 9SM CLR 23/22 A3004 RMK AO2 SLP169 T02280222